Time;durP1;ratioP1;P1;durP2;ratioP2;P2;SDS_P1;SDS_P2;PMS_P1;PMS_P2;Temp;Humidity;BMP_temperature;BMP_pressure;BME280_temperature;BME280_humidity;BME280_pressure;Samples;Min_cycle;Max_cycle;Signal;HPM_P1;HPM_P2
2022/07/12 00:02:13;;;;;;;2.15;1.95;;;;;;;;;;5081337;27;20049;-33
2022/07/12 00:04:39;;;;;;;2.33;1.98;;;;;;;;;;5090262;28;20024;-34
2022/07/12 00:07:05;;;;;;;2.20;2.00;;;;;;;;;;5082703;28;20059;-34
2022/07/12 00:09:31;;;;;;;3.42;2.20;;;;;;;;;;5089637;28;20477;-33
2022/07/12 00:11:57;;;;;;;2.40;2.20;;;;;;;;;;5089773;28;20032;-33
2022/07/12 00:14:24;;;;;;;2.95;2.47;;;;;;;;;;5084709;28;20107;-33
2022/07/12 00:16:51;;;;;;;2.50;2.20;;;;;;;;;;5088948;28;20016;-36
2022/07/12 00:19:17;;;;;;;2.42;2.17;;;;;;;;;;5083551;28;20039;-36
2022/07/12 00:21:43;;;;;;;3.03;2.20;;;;;;;;;;5087343;28;20473;-34
2022/07/12 00:24:09;;;;;;;2.42;2.22;;;;;;;;;;5088134;28;20537;-33
2022/07/12 00:26:35;;;;;;;3.38;2.65;;;;;;;;;;5087873;28;20032;-33
2022/07/12 00:29:01;;;;;;;2.85;2.55;;;;;;;;;;5074145;28;20025;-33
2022/07/12 00:31:27;;;;;;;2.38;2.17;;;;;;;;;;5087332;27;20025;-33
2022/07/12 00:33:53;;;;;;;2.10;1.90;;;;;;;;;;5088440;28;20036;-34
2022/07/12 00:36:19;;;;;;;3.03;2.05;;;;;;;;;;5084930;28;22133;-34
2022/07/12 00:38:46;;;;;;;2.80;2.50;;;;;;;;;;5086993;28;20032;-33
2022/07/12 00:41:12;;;;;;;3.00;2.60;;;;;;;;;;5087335;28;20059;-35
2022/07/12 00:43:38;;;;;;;3.22;2.70;;;;;;;;;;5087449;28;20435;-33
2022/07/12 00:46:04;;;;;;;4.18;2.70;;;;;;;;;;5088384;28;20028;-35
2022/07/12 00:48:32;;;;;;;2.95;2.50;;;;;;;;;;5085516;28;20485;-33
2022/07/12 00:50:58;;;;;;;2.63;2.42;;;;;;;;;;5079112;28;20089;-34
2022/07/12 00:53:24;;;;;;;2.58;2.25;;;;;;;;;;5086299;28;20027;-33
2022/07/12 00:55:57;;;;;;;2.22;2.03;;;;;;;;;;5088066;28;20034;-33
2022/07/12 00:58:23;;;;;;;2.72;2.40;;;;;;;;;;5086006;28;20114;-33
2022/07/12 01:00:50;;;;;;;2.28;2.08;;;;;;;;;;5083773;28;20049;-33
2022/07/12 01:03:16;;;;;;;1.77;1.60;;;;;;;;;;5084540;28;20036;-35
2022/07/12 01:05:43;;;;;;;2.05;1.77;;;;;;;;;;5085801;28;20432;-34
2022/07/12 01:08:09;;;;;;;1.70;1.60;;;;;;;;;;5081067;28;20032;-33
2022/07/12 01:10:37;;;;;;;2.08;1.73;;;;;;;;;;5082534;28;20035;-33
2022/07/12 01:13:03;;;;;;;1.75;1.50;;;;;;;;;;5087458;28;20024;-34
2022/07/12 01:15:29;;;;;;;2.45;2.10;;;;;;;;;;5085411;28;20031;-35
2022/07/12 01:17:56;;;;;;;2.20;1.98;;;;;;;;;;5087310;28;20465;-33
2022/07/12 01:20:22;;;;;;;2.63;2.10;;;;;;;;;;5083654;28;20030;-34
2022/07/12 01:22:58;;;;;;;2.80;2.50;;;;;;;;;;5081704;28;20059;-33
2022/07/12 01:25:25;;;;;;;2.50;2.30;;;;;;;;;;5086655;28;20032;-33
2022/07/12 01:27:51;;;;;;;2.33;2.13;;;;;;;;;;5086663;28;20054;-35
2022/07/12 01:30:17;;;;;;;2.42;2.22;;;;;;;;;;5085328;27;20097;-36
2022/07/12 01:32:43;;;;;;;3.03;1.60;;;;;;;;;;5080355;28;20027;-34
2022/07/12 01:35:09;;;;;;;1.67;1.58;;;;;;;;;;5081126;28;20119;-34
2022/07/12 01:37:36;;;;;;;1.70;1.50;;;;;;;;;;5085378;28;20036;-34
2022/07/12 01:40:04;;;;;;;1.80;1.70;;;;;;;;;;5087693;28;20044;-34
2022/07/12 01:42:30;;;;;;;1.60;1.50;;;;;;;;;;5082033;28;20082;-35
2022/07/12 01:44:57;;;;;;;1.33;1.30;;;;;;;;;;5081546;28;20476;-35
2022/07/12 01:47:24;;;;;;;1.60;1.50;;;;;;;;;;5086473;28;20032;-34
2022/07/12 01:49:51;;;;;;;1.50;1.40;;;;;;;;;;5079081;28;20489;-35
2022/07/12 01:52:17;;;;;;;1.67;1.45;;;;;;;;;;5086729;28;20020;-36
2022/07/12 01:54:44;;;;;;;2.42;2.00;;;;;;;;;;5080125;28;20056;-34
2022/07/12 01:57:10;;;;;;;2.28;1.95;;;;;;;;;;5085616;28;20036;-35
2022/07/12 01:59:36;;;;;;;2.75;2.20;;;;;;;;;;5085831;28;20507;-34
2022/07/12 02:02:03;;;;;;;2.20;2.00;;;;;;;;;;5075067;28;20048;-34
2022/07/12 02:04:29;;;;;;;3.38;2.40;;;;;;;;;;5082758;28;20533;-34
2022/07/12 02:06:55;;;;;;;2.92;2.60;;;;;;;;;;5085120;28;20020;-35
2022/07/12 02:09:21;;;;;;;4.03;2.70;;;;;;;;;;5086143;28;20024;-35
2022/07/12 02:11:47;;;;;;;3.00;2.70;;;;;;;;;;5078826;28;20034;-35
2022/07/12 02:14:14;;;;;;;2.90;2.60;;;;;;;;;;5084885;28;20033;-36
2022/07/12 02:16:40;;;;;;;2.78;2.58;;;;;;;;;;5080228;28;20024;-34
2022/07/12 02:19:07;;;;;;;2.58;2.38;;;;;;;;;;5086276;28;20020;-34
2022/07/12 02:21:33;;;;;;;3.53;2.30;;;;;;;;;;5084610;28;20081;-33
2022/07/12 02:23:59;;;;;;;2.00;1.90;;;;;;;;;;5079845;28;20028;-33
2022/07/12 02:26:25;;;;;;;2.45;2.20;;;;;;;;;;5086738;28;20492;-34
2022/07/12 02:28:51;;;;;;;2.17;1.95;;;;;;;;;;5085340;28;20125;-34
2022/07/12 02:31:17;;;;;;;2.92;2.42;;;;;;;;;;5083241;28;20028;-36
2022/07/12 02:33:43;;;;;;;2.83;2.38;;;;;;;;;;5084334;28;20028;-34
2022/07/12 02:36:10;;;;;;;3.78;2.83;;;;;;;;;;5084690;28;20506;-34
2022/07/12 02:38:36;;;;;;;3.35;2.70;;;;;;;;;;5085192;28;20024;-33
2022/07/12 02:41:02;;;;;;;2.80;2.50;;;;;;;;;;5083273;28;20021;-33
2022/07/12 02:43:29;;;;;;;2.83;2.55;;;;;;;;;;5085213;28;20024;-34
2022/07/12 02:45:58;;;;;;;2.53;2.33;;;;;;;;;;5078952;28;20952;-33
2022/07/12 02:48:24;;;;;;;3.75;2.30;;;;;;;;;;5085848;28;20416;-34
2022/07/12 02:50:50;;;;;;;2.70;2.50;;;;;;;;;;5085430;28;20039;-33
2022/07/12 02:53:16;;;;;;;3.85;2.55;;;;;;;;;;5087028;28;20090;-34
2022/07/12 02:55:42;;;;;;;3.08;2.60;;;;;;;;;;5080129;28;20031;-35
2022/07/12 02:58:08;;;;;;;7.63;3.30;;;;;;;;;;5078924;28;20114;-34
2022/07/12 03:00:35;;;;;;;4.32;2.60;;;;;;;;;;5085112;28;20089;-34
2022/07/12 03:03:01;;;;;;;3.67;2.80;;;;;;;;;;5086330;28;20047;-34
2022/07/12 03:05:27;;;;;;;3.83;2.67;;;;;;;;;;5079424;28;20034;-34
2022/07/12 03:07:53;;;;;;;4.43;2.70;;;;;;;;;;5088909;28;20039;-33
2022/07/12 03:10:19;;;;;;;3.70;2.60;;;;;;;;;;5090197;28;20093;-34
2022/07/12 03:12:45;;;;;;;4.30;3.25;;;;;;;;;;5087423;28;20032;-33
2022/07/12 03:15:12;;;;;;;3.45;2.85;;;;;;;;;;5082857;28;20098;-34
2022/07/12 03:17:38;;;;;;;4.00;3.17;;;;;;;;;;5089195;28;20115;-34
2022/07/12 03:20:11;;;;;;;4.00;3.28;;;;;;;;;;5087065;28;20086;-34
2022/07/12 03:22:37;;;;;;;3.50;3.20;;;;;;;;;;5087691;28;20061;-34
2022/07/12 03:25:03;;;;;;;3.92;3.40;;;;;;;;;;5086665;28;20028;-34
2022/07/12 03:27:31;;;;;;;3.72;3.22;;;;;;;;;;5088226;28;20078;-33
2022/07/12 03:29:57;;;;;;;3.72;3.42;;;;;;;;;;5083862;28;20090;-34
2022/07/12 03:32:23;;;;;;;5.22;3.22;;;;;;;;;;5080388;28;20033;-34
2022/07/12 03:34:49;;;;;;;4.88;3.88;;;;;;;;;;5083986;28;20043;-34
2022/07/12 03:37:15;;;;;;;3.83;3.00;;;;;;;;;;5085560;28;20025;-33
2022/07/12 03:39:41;;;;;;;3.42;3.13;;;;;;;;;;5090014;28;20043;-34
2022/07/12 03:42:07;;;;;;;4.13;3.20;;;;;;;;;;5076913;28;20035;-35
2022/07/12 03:44:33;;;;;;;4.57;3.05;;;;;;;;;;5085507;28;20381;-33
2022/07/12 03:46:59;;;;;;;3.80;2.90;;;;;;;;;;5089128;28;20059;-34
2022/07/12 03:49:26;;;;;;;5.50;2.88;;;;;;;;;;5087608;28;20119;-34
2022/07/12 03:51:52;;;;;;;3.55;3.03;;;;;;;;;;5089829;28;20117;-33
2022/07/12 03:54:18;;;;;;;4.22;3.78;;;;;;;;;;5083966;28;20119;-34
2022/07/12 03:59:29;;;;;;;3.58;2.70;;;;;;;;;;5086128;28;20119;-33
2022/07/12 04:01:54;;;;;;;3.25;2.80;;;;;;;;;;5088572;27;20074;-35
2022/07/12 04:04:20;;;;;;;2.92;2.38;;;;;;;;;;5087703;28;20048;-33
2022/07/12 04:06:46;;;;;;;3.70;2.55;;;;;;;;;;5090750;28;20032;-33
2022/07/12 04:09:13;;;;;;;5.07;3.03;;;;;;;;;;5089183;28;20503;-33
2022/07/12 04:11:39;;;;;;;3.15;2.75;;;;;;;;;;5084497;28;20032;-35
2022/07/12 04:14:05;;;;;;;4.15;2.85;;;;;;;;;;5083473;28;20545;-34
2022/07/12 04:16:31;;;;;;;4.13;2.80;;;;;;;;;;5083747;28;20041;-35
2022/07/12 04:18:57;;;;;;;2.83;2.50;;;;;;;;;;5082646;28;20737;-33
2022/07/12 04:21:23;;;;;;;4.63;2.88;;;;;;;;;;5085536;28;20779;-33
2022/07/12 04:23:49;;;;;;;3.05;2.75;;;;;;;;;;5085831;28;20031;-33
2022/07/12 04:26:15;;;;;;;3.60;2.92;;;;;;;;;;5080626;28;20449;-33
2022/07/12 04:28:41;;;;;;;4.80;3.03;;;;;;;;;;5080357;28;20111;-34
2022/07/12 04:31:07;;;;;;;6.18;3.00;;;;;;;;;;5084092;27;20120;-35
2022/07/12 04:33:34;;;;;;;4.88;2.95;;;;;;;;;;5086033;28;20520;-34
2022/07/12 04:36:00;;;;;;;5.28;2.97;;;;;;;;;;5081114;28;20035;-33
2022/07/12 04:38:26;;;;;;;6.93;3.03;;;;;;;;;;5086036;28;21666;-33
2022/07/12 04:40:52;;;;;;;3.33;2.85;;;;;;;;;;5087955;28;20108;-36
2022/07/12 04:43:18;;;;;;;4.63;3.00;;;;;;;;;;5083748;28;20114;-34
2022/07/12 04:45:44;;;;;;;4.10;2.85;;;;;;;;;;5083728;28;20374;-34
2022/07/12 04:48:10;;;;;;;6.22;3.00;;;;;;;;;;5085178;28;20504;-33
2022/07/12 04:50:36;;;;;;;3.88;3.13;;;;;;;;;;5087313;28;20485;-34
2022/07/12 04:53:02;;;;;;;4.38;3.08;;;;;;;;;;5085241;28;20034;-33
2022/07/12 04:55:28;;;;;;;3.70;2.95;;;;;;;;;;5085069;28;20020;-33
2022/07/12 04:57:55;;;;;;;3.08;2.78;;;;;;;;;;5119890;27;20023;-34
2022/07/12 05:00:21;;;;;;;5.15;3.10;;;;;;;;;;5082777;28;20051;-34
2022/07/12 05:02:47;;;;;;;4.55;2.92;;;;;;;;;;5086564;28;20424;-36
2022/07/12 05:05:14;;;;;;;3.95;2.95;;;;;;;;;;5083761;28;20020;-34
2022/07/12 05:07:40;;;;;;;5.05;3.10;;;;;;;;;;5087609;28;20507;-34
2022/07/12 05:10:06;;;;;;;3.85;3.30;;;;;;;;;;5086356;28;20027;-35
2022/07/12 05:12:32;;;;;;;3.90;2.92;;;;;;;;;;5075421;28;20489;-33
2022/07/12 05:14:58;;;;;;;5.90;3.60;;;;;;;;;;5073840;28;20028;-34
2022/07/12 05:17:24;;;;;;;4.25;3.40;;;;;;;;;;5079664;28;20032;-33
2022/07/12 05:19:50;;;;;;;4.45;3.58;;;;;;;;;;5086039;28;20032;-33
2022/07/12 05:22:16;;;;;;;6.05;3.75;;;;;;;;;;5080887;28;20028;-33
2022/07/12 05:24:42;;;;;;;6.10;3.67;;;;;;;;;;5084296;28;20508;-33
2022/07/12 05:27:09;;;;;;;4.68;3.33;;;;;;;;;;5083180;28;20108;-34
2022/07/12 05:29:35;;;;;;;4.85;3.67;;;;;;;;;;5084635;28;20028;-33
2022/07/12 05:32:01;;;;;;;5.85;3.60;;;;;;;;;;5082994;27;20036;-34
2022/07/12 05:34:28;;;;;;;7.05;3.85;;;;;;;;;;5083961;28;20028;-33
2022/07/12 05:36:54;;;;;;;3.75;3.17;;;;;;;;;;5087065;28;20028;-35
2022/07/12 05:39:20;;;;;;;4.30;3.72;;;;;;;;;;5076313;28;20034;-33
2022/07/12 05:41:49;;;;;;;4.72;4.03;;;;;;;;;;5081056;28;20032;-34
2022/07/12 05:44:17;;;;;;;4.25;3.35;;;;;;;;;;5079328;28;20115;-34
2022/07/12 05:46:43;;;;;;;5.95;3.83;;;;;;;;;;5086697;28;20017;-33
2022/07/12 05:49:09;;;;;;;3.92;3.22;;;;;;;;;;5083696;28;20040;-35
2022/07/12 05:54:20;;;;;;;5.70;3.85;;;;;;;;;;5086284;28;20035;-34
2022/07/12 05:56:46;;;;;;;4.75;3.63;;;;;;;;;;5086344;28;20032;-33
2022/07/12 05:59:12;;;;;;;4.22;3.60;;;;;;;;;;5079829;28;20079;-35
2022/07/12 06:01:38;;;;;;;7.38;4.45;;;;;;;;;;5084307;27;20481;-33
2022/07/12 06:04:04;;;;;;;4.45;3.40;;;;;;;;;;5077856;28;20079;-33
2022/07/12 06:06:30;;;;;;;4.07;3.67;;;;;;;;;;5085774;28;20016;-33
2022/07/12 06:08:56;;;;;;;4.75;3.78;;;;;;;;;;5083735;28;20024;-35
2022/07/12 06:11:22;;;;;;;6.28;4.07;;;;;;;;;;5082539;28;20024;-33
2022/07/12 06:13:49;;;;;;;4.97;3.78;;;;;;;;;;5085891;28;20032;-33
2022/07/12 06:16:15;;;;;;;5.72;4.13;;;;;;;;;;5081966;28;20451;-35
2022/07/12 06:18:41;;;;;;;4.95;4.13;;;;;;;;;;5083532;28;20035;-34
2022/07/12 06:21:07;;;;;;;6.10;4.03;;;;;;;;;;5084063;28;20053;-35
2022/07/12 06:23:33;;;;;;;5.40;4.05;;;;;;;;;;5079280;28;20473;-35
2022/07/12 06:25:59;;;;;;;5.30;3.92;;;;;;;;;;5086428;28;20028;-36
2022/07/12 06:28:25;;;;;;;6.03;4.22;;;;;;;;;;5079873;28;20016;-34
2022/07/12 06:30:51;;;;;;;4.28;3.88;;;;;;;;;;5083780;27;20028;-34
2022/07/12 06:33:17;;;;;;;5.68;4.05;;;;;;;;;;5083255;28;20036;-33
2022/07/12 06:35:43;;;;;;;5.53;3.92;;;;;;;;;;5084637;28;20099;-34
2022/07/12 06:38:09;;;;;;;5.13;3.72;;;;;;;;;;5088743;28;20028;-34
2022/07/12 06:40:35;;;;;;;5.15;3.92;;;;;;;;;;5090287;28;20496;-33
2022/07/12 06:43:01;;;;;;;4.72;3.20;;;;;;;;;;5085110;28;20021;-35
2022/07/12 06:45:27;;;;;;;5.18;3.42;;;;;;;;;;5082811;28;20117;-33
2022/07/12 06:47:53;;;;;;;3.28;2.85;;;;;;;;;;5089312;28;20035;-34
2022/07/12 06:50:19;;;;;;;4.30;2.72;;;;;;;;;;5086963;28;20023;-34
2022/07/12 06:52:45;;;;;;;2.80;2.20;;;;;;;;;;5083641;28;20056;-33
2022/07/12 06:55:11;;;;;;;2.58;2.38;;;;;;;;;;5090741;28;20064;-36
2022/07/12 06:57:37;;;;;;;3.08;2.40;;;;;;;;;;5073661;28;20501;-35
2022/07/12 07:00:07;;;;;;;2.47;2.08;;;;;;;;;;5085294;28;20110;-36
2022/07/12 07:02:33;;;;;;;2.45;2.25;;;;;;;;;;5091463;27;20421;-35
2022/07/12 07:04:59;;;;;;;3.47;2.65;;;;;;;;;;5083325;28;20032;-33
2022/07/12 07:07:25;;;;;;;2.53;2.33;;;;;;;;;;5091660;28;20456;-36
2022/07/12 07:09:51;;;;;;;2.13;1.88;;;;;;;;;;5091908;28;20028;-34
2022/07/12 07:12:17;;;;;;;2.35;1.98;;;;;;;;;;5077190;28;21378;-34
2022/07/12 07:14:43;;;;;;;1.88;1.77;;;;;;;;;;5083911;28;20024;-34
2022/07/12 07:17:09;;;;;;;1.85;1.70;;;;;;;;;;5089988;28;20032;-34
2022/07/12 07:19:36;;;;;;;1.50;1.40;;;;;;;;;;5083628;28;20089;-34
2022/07/12 07:22:02;;;;;;;2.67;1.70;;;;;;;;;;5082856;28;20036;-34
2022/07/12 07:24:28;;;;;;;1.90;1.70;;;;;;;;;;5088355;28;20473;-34
2022/07/12 07:26:54;;;;;;;3.30;1.70;;;;;;;;;;5085408;28;20029;-33
2022/07/12 07:32:05;;;;;;;2.40;1.67;;;;;;;;;;5082304;28;20069;-33
2022/07/12 07:34:31;;;;;;;1.70;1.60;;;;;;;;;;5078646;28;20032;-34
2022/07/12 07:36:57;;;;;;;2.17;1.77;;;;;;;;;;5085370;28;20115;-33
2022/07/12 07:39:23;;;;;;;2.42;1.75;;;;;;;;;;5086189;28;20119;-34
2022/07/12 07:41:49;;;;;;;1.45;1.35;;;;;;;;;;5089283;28;20042;-34
2022/07/12 07:44:15;;;;;;;1.65;1.45;;;;;;;;;;5087782;28;20038;-35
2022/07/12 07:46:41;;;;;;;1.60;1.40;;;;;;;;;;5088378;28;20121;-34
2022/07/12 07:49:07;;;;;;;1.63;1.52;;;;;;;;;;5086084;28;20032;-33
2022/07/12 07:51:33;;;;;;;1.42;1.33;;;;;;;;;;5087600;28;20023;-35
2022/07/12 07:53:59;;;;;;;1.40;1.30;;;;;;;;;;5087312;28;20070;-33
2022/07/12 07:56:25;;;;;;;1.35;1.25;;;;;;;;;;5088267;28;20028;-34
2022/07/12 07:58:52;;;;;;;1.40;1.35;;;;;;;;;;5088647;28;20115;-33
2022/07/12 08:01:18;;;;;;;1.30;1.20;;;;;;;;;;5086071;28;20028;-33
2022/07/12 08:03:44;;;;;;;1.90;1.00;;;;;;;;;;5083735;28;20048;-33
2022/07/12 08:06:10;;;;;;;1.63;1.10;;;;;;;;;;5088937;28;20052;-33
2022/07/12 08:08:36;;;;;;;1.35;1.25;;;;;;;;;;5086764;28;20455;-35
2022/07/12 08:11:02;;;;;;;0.98;0.98;;;;;;;;;;5112080;27;20025;-34
2022/07/12 08:13:28;;;;;;;2.35;1.20;;;;;;;;;;5086377;28;20111;-33
2022/07/12 08:15:54;;;;;;;0.88;0.88;;;;;;;;;;5086910;28;20058;-33
2022/07/12 08:18:20;;;;;;;0.93;0.88;;;;;;;;;;5084760;28;20483;-33
2022/07/12 08:20:46;;;;;;;1.33;1.10;;;;;;;;;;5086595;28;20051;-34
2022/07/12 08:23:12;;;;;;;1.27;0.90;;;;;;;;;;5085216;28;20021;-33
2022/07/12 08:25:38;;;;;;;2.50;1.00;;;;;;;;;;5085912;28;20739;-33
2022/07/12 08:28:04;;;;;;;1.25;1.15;;;;;;;;;;5085651;28;20373;-34
2022/07/12 08:30:30;;;;;;;0.75;0.75;;;;;;;;;;5082368;28;20031;-33
2022/07/12 08:32:56;;;;;;;0.80;0.80;;;;;;;;;;5081252;28;20024;-33
2022/07/12 08:35:23;;;;;;;1.20;1.10;;;;;;;;;;5084396;28;20035;-35
2022/07/12 08:37:49;;;;;;;1.10;1.00;;;;;;;;;;5086997;28;20032;-32
2022/07/12 08:40:15;;;;;;;2.70;1.10;;;;;;;;;;5088427;28;20691;-33
2022/07/12 08:42:42;;;;;;;1.15;1.02;;;;;;;;;;5076877;28;20035;-34
2022/07/12 08:45:08;;;;;;;0.82;0.82;;;;;;;;;;5084197;28;20028;-33
2022/07/12 08:47:34;;;;;;;0.73;0.73;;;;;;;;;;5088944;28;20016;-33
2022/07/12 08:50:10;;;;;;;1.10;1.00;;;;;;;;;;5087762;28;20024;-33
2022/07/12 08:52:38;;;;;;;0.65;0.65;;;;;;;;;;5080039;28;20012;-34
2022/07/12 08:55:16;;;;;;;1.50;0.73;;;;;;;;;;5086221;28;20027;-33
2022/07/12 08:57:42;;;;;;;1.02;0.80;;;;;;;;;;5087259;28;20039;-35
2022/07/12 09:00:09;;;;;;;0.90;0.90;;;;;;;;;;5086375;28;20031;-33
2022/07/12 09:02:45;;;;;;;1.05;0.80;;;;;;;;;;5085228;27;20048;-33
2022/07/12 09:05:11;;;;;;;0.80;0.80;;;;;;;;;;5085808;28;20366;-33
2022/07/12 09:07:38;;;;;;;0.95;0.90;;;;;;;;;;5083245;28;20022;-32
2022/07/12 09:10:05;;;;;;;1.20;0.93;;;;;;;;;;5081710;28;20033;-34
2022/07/12 09:12:31;;;;;;;0.82;0.82;;;;;;;;;;5078957;28;20017;-33
2022/07/12 09:15:12;;;;;;;0.93;0.90;;;;;;;;;;5087452;28;20057;-34
2022/07/12 09:17:38;;;;;;;0.90;0.90;;;;;;;;;;5087058;28;20089;-34
2022/07/12 09:20:05;;;;;;;1.10;1.10;;;;;;;;;;5086639;28;20503;-34
2022/07/12 09:22:31;;;;;;;1.15;1.10;;;;;;;;;;5086250;28;20032;-35
2022/07/12 09:24:57;;;;;;;1.10;1.00;;;;;;;;;;5083422;28;20026;-34
2022/07/12 09:27:26;;;;;;;2.38;1.15;;;;;;;;;;5086581;28;20028;-34
2022/07/12 09:29:52;;;;;;;0.90;0.90;;;;;;;;;;5086564;28;20030;-35
2022/07/12 09:37:49;;;;;;;1.88;1.20;;;;;;;;;;5084242;28;20393;-34
2022/07/12 09:40:15;;;;;;;1.10;1.10;;;;;;;;;;5086264;28;20035;-34
2022/07/12 09:42:41;;;;;;;1.35;1.20;;;;;;;;;;5082399;28;20032;-34
2022/07/12 09:45:09;;;;;;;1.10;1.10;;;;;;;;;;5079402;28;20036;-32
2022/07/12 09:47:35;;;;;;;0.90;0.90;;;;;;;;;;5083497;28;20035;-35
2022/07/12 09:50:01;;;;;;;2.38;1.25;;;;;;;;;;5085646;28;20162;-33
2022/07/12 09:52:28;;;;;;;1.40;1.30;;;;;;;;;;5083177;28;20127;-34
2022/07/12 09:54:55;;;;;;;1.35;1.10;;;;;;;;;;5085026;28;20032;-33
2022/07/12 09:57:22;;;;;;;1.30;0.80;;;;;;;;;;5081681;28;20032;-34
2022/07/12 09:59:52;;;;;;;0.97;0.97;;;;;;;;;;5083410;28;20040;-35
2022/07/12 10:02:18;;;;;;;1.00;0.90;;;;;;;;;;5080810;28;20389;-33
2022/07/12 10:04:46;;;;;;;0.85;0.85;;;;;;;;;;5081739;28;20068;-33
2022/07/12 10:07:16;;;;;;;;;;;;;;;;;;5086578;28;20036;-34
2022/07/12 10:09:43;;;;;;;0.80;0.80;;;;;;;;;;5084948;28;19908;-32
2022/07/12 10:12:10;;;;;;;1.75;0.90;;;;;;;;;;5084398;28;20532;-33
2022/07/12 10:14:37;;;;;;;0.68;0.68;;;;;;;;;;5084791;28;20034;-35
2022/07/12 10:17:07;;;;;;;0.70;0.70;;;;;;;;;;5086342;28;20036;-33
2022/07/12 10:19:35;;;;;;;1.42;0.68;;;;;;;;;;5085139;28;20024;-34
2022/07/12 10:22:02;;;;;;;0.70;0.70;;;;;;;;;;5086795;28;20036;-33
2022/07/12 10:24:31;;;;;;;0.67;0.67;;;;;;;;;;5086691;28;20434;-35
2022/07/12 10:26:58;;;;;;;0.85;0.70;;;;;;;;;;5079626;28;20539;-33
2022/07/12 10:29:25;;;;;;;0.70;0.70;;;;;;;;;;5080642;28;20032;-36
2022/07/12 10:31:51;;;;;;;0.80;0.80;;;;;;;;;;5081335;27;20036;-33
2022/07/12 10:34:21;;;;;;;0.70;0.70;;;;;;;;;;5078564;28;20037;-35
2022/07/12 10:36:56;;;;;;;1.98;0.90;;;;;;;;;;5076355;28;20028;-33
2022/07/12 10:39:27;;;;;;;0.65;0.65;;;;;;;;;;5081526;28;20374;-33
2022/07/12 10:42:06;;;;;;;0.80;0.75;;;;;;;;;;5085187;28;20028;-34
2022/07/12 10:44:35;;;;;;;0.70;0.70;;;;;;;;;;5085558;28;20518;-33
2022/07/12 10:47:01;;;;;;;0.80;0.80;;;;;;;;;;5084818;28;20020;-33
2022/07/12 10:49:28;;;;;;;0.73;0.73;;;;;;;;;;5082063;28;20020;-33
2022/07/12 10:52:10;;;;;;;0.55;0.55;;;;;;;;;;5084102;28;20058;-34
2022/07/12 10:54:56;;;;;;;0.60;0.60;;;;;;;;;;5085689;28;20507;-34
2022/07/12 10:57:43;;;;;;;2.45;0.93;;;;;;;;;;5079248;28;20459;-33
2022/07/12 11:00:09;;;;;;;0.68;0.68;;;;;;;;;;5081808;28;20028;-33
2022/07/12 11:02:36;;;;;;;0.70;0.70;;;;;;;;;;5085012;28;20048;-33
2022/07/12 11:05:01;;;;;;;0.50;0.50;;;;;;;;;;5084247;28;20032;-34
2022/07/12 11:07:28;;;;;;;0.75;0.75;;;;;;;;;;5081561;28;20024;-35
2022/07/12 11:09:54;;;;;;;1.00;0.60;;;;;;;;;;5083250;28;20052;-33
2022/07/12 11:12:21;;;;;;;1.40;0.70;;;;;;;;;;5085398;28;20030;-33
2022/07/12 11:14:47;;;;;;;0.55;0.55;;;;;;;;;;5081427;28;20056;-33
2022/07/12 11:17:13;;;;;;;0.70;0.70;;;;;;;;;;5082820;28;20024;-36
2022/07/12 11:19:39;;;;;;;0.82;0.82;;;;;;;;;;5077941;28;20137;-33
2022/07/12 11:22:05;;;;;;;0.70;0.70;;;;;;;;;;5081929;28;20038;-33
2022/07/12 11:24:34;;;;;;;0.50;0.50;;;;;;;;;;5088494;28;20062;-34
2022/07/12 11:27:01;;;;;;;2.78;0.63;;;;;;;;;;5078663;28;20065;-36
2022/07/12 11:29:27;;;;;;;0.65;0.65;;;;;;;;;;5089960;28;20107;-34
2022/07/12 11:32:11;;;;;;;0.55;0.55;;;;;;;;;;5086988;27;20055;-33
2022/07/12 11:34:37;;;;;;;0.57;0.57;;;;;;;;;;5088336;28;20521;-33
2022/07/12 11:37:03;;;;;;;0.52;0.52;;;;;;;;;;5081721;28;20116;-35
2022/07/12 11:39:32;;;;;;;0.60;0.60;;;;;;;;;;5089825;28;20027;-33
2022/07/12 11:41:59;;;;;;;0.82;0.82;;;;;;;;;;5088021;28;20035;-33
2022/07/12 11:44:42;;;;;;;0.50;0.50;;;;;;;;;;5086995;28;20036;-35
2022/07/12 11:47:08;;;;;;;0.50;0.50;;;;;;;;;;5086698;28;20119;-33
2022/07/12 11:49:34;;;;;;;1.27;0.60;;;;;;;;;;5083363;28;20016;-34
2022/07/12 11:52:00;;;;;;;0.60;0.60;;;;;;;;;;5085351;28;20020;-35
2022/07/12 11:54:26;;;;;;;0.50;0.50;;;;;;;;;;5089190;28;20404;-35
2022/07/12 11:57:05;;;;;;;0.50;0.50;;;;;;;;;;5089706;28;20032;-33
2022/07/12 11:59:31;;;;;;;1.48;0.60;;;;;;;;;;5084331;28;20086;-33
2022/07/12 12:02:04;;;;;;;0.63;0.50;;;;;;;;;;5086723;27;20052;-36
2022/07/12 12:04:30;;;;;;;0.57;0.57;;;;;;;;;;5080337;28;20071;-35
2022/07/12 12:06:56;;;;;;;1.85;0.70;;;;;;;;;;5079508;28;20780;-33
2022/07/12 12:09:22;;;;;;;0.50;0.50;;;;;;;;;;5086563;28;20024;-33
2022/07/12 12:11:48;;;;;;;0.68;0.60;;;;;;;;;;5088511;28;20024;-33
2022/07/12 12:14:14;;;;;;;0.77;0.77;;;;;;;;;;5087417;28;20104;-34
2022/07/12 12:16:40;;;;;;;0.60;0.60;;;;;;;;;;5086755;28;20473;-34
2022/07/12 12:19:11;;;;;;;0.80;0.60;;;;;;;;;;5087819;28;20028;-35
2022/07/12 12:21:37;;;;;;;0.50;0.50;;;;;;;;;;5085236;28;20157;-34
2022/07/12 12:24:10;;;;;;;0.32;0.32;;;;;;;;;;5086758;28;20101;-34
2022/07/12 12:26:36;;;;;;;0.50;0.50;;;;;;;;;;5080502;28;20103;-35
2022/07/12 12:29:03;;;;;;;0.60;0.60;;;;;;;;;;5088601;28;20027;-33
2022/07/12 12:31:29;;;;;;;0.52;0.52;;;;;;;;;;5079156;28;20036;-33
2022/07/12 12:33:58;;;;;;;0.50;0.50;;;;;;;;;;5080257;28;20061;-33
2022/07/12 12:36:25;;;;;;;0.65;0.65;;;;;;;;;;5085042;28;20024;-33
2022/07/12 12:38:51;;;;;;;1.05;0.70;;;;;;;;;;5082224;28;20024;-34
2022/07/12 12:41:19;;;;;;;0.40;0.40;;;;;;;;;;5087052;28;20439;-33
2022/07/12 12:43:45;;;;;;;0.63;0.50;;;;;;;;;;5083120;28;20032;-33
2022/07/12 12:46:11;;;;;;;0.95;0.50;;;;;;;;;;5081947;28;20055;-34
2022/07/12 12:48:37;;;;;;;0.50;0.50;;;;;;;;;;5085166;28;20029;-34
2022/07/12 12:51:10;;;;;;;0.52;0.52;;;;;;;;;;5085490;28;20035;-34
2022/07/12 12:53:38;;;;;;;0.50;0.50;;;;;;;;;;5087656;28;20042;-33
2022/07/12 12:56:07;;;;;;;0.95;0.60;;;;;;;;;;5082621;28;20477;-34
2022/07/12 12:58:33;;;;;;;0.50;0.50;;;;;;;;;;5086515;28;20103;-33
2022/07/12 13:00:59;;;;;;;0.50;0.50;;;;;;;;;;5085121;27;20438;-34
2022/07/12 13:03:25;;;;;;;0.60;0.45;;;;;;;;;;5075972;28;20079;-33
2022/07/12 13:05:51;;;;;;;0.40;0.40;;;;;;;;;;5086725;28;20107;-33
2022/07/12 13:08:17;;;;;;;0.50;0.50;;;;;;;;;;5085405;28;20053;-34
2022/07/12 13:10:45;;;;;;;0.73;0.60;;;;;;;;;;5085896;28;20098;-33
2022/07/12 13:13:12;;;;;;;0.50;0.50;;;;;;;;;;5086039;28;20154;-33
2022/07/12 13:15:38;;;;;;;0.50;0.50;;;;;;;;;;5083876;28;20059;-33
2022/07/12 13:18:05;;;;;;;0.60;0.60;;;;;;;;;;5086730;28;20055;-34
2022/07/12 13:20:31;;;;;;;0.55;0.50;;;;;;;;;;5085679;28;20031;-33
2022/07/12 13:22:57;;;;;;;0.50;0.50;;;;;;;;;;5079409;28;20028;-35
2022/07/12 13:25:24;;;;;;;0.50;0.50;;;;;;;;;;5087552;28;20039;-32
2022/07/12 13:27:51;;;;;;;0.60;0.60;;;;;;;;;;5086072;28;20020;-35
2022/07/12 13:30:18;;;;;;;0.57;0.57;;;;;;;;;;5086168;27;20085;-33
2022/07/12 13:32:44;;;;;;;0.60;0.60;;;;;;;;;;5083599;28;20020;-32
2022/07/12 13:35:11;;;;;;;0.60;0.60;;;;;;;;;;5085869;28;20026;-34
2022/07/12 13:37:38;;;;;;;0.70;0.70;;;;;;;;;;5082527;28;20033;-33
2022/07/12 13:40:11;;;;;;;0.50;0.50;;;;;;;;;;5085007;28;20411;-33
2022/07/12 13:42:41;;;;;;;0.68;0.68;;;;;;;;;;5083055;28;20370;-32
2022/07/12 13:45:09;;;;;;;0.70;0.70;;;;;;;;;;5082451;28;20446;-33
2022/07/12 13:47:35;;;;;;;0.50;0.50;;;;;;;;;;5083987;28;20048;-33
2022/07/12 13:50:01;;;;;;;0.65;0.60;;;;;;;;;;5084046;28;20067;-33
2022/07/12 13:52:27;;;;;;;0.45;0.45;;;;;;;;;;5077512;28;20508;-34
2022/07/12 13:54:53;;;;;;;0.40;0.40;;;;;;;;;;5079016;28;20107;-34
2022/07/12 13:57:19;;;;;;;0.50;0.50;;;;;;;;;;5085837;28;20106;-34
2022/07/12 13:59:45;;;;;;;0.50;0.50;;;;;;;;;;5085201;28;20036;-37
2022/07/12 14:02:12;;;;;;;0.63;0.63;;;;;;;;;;5084606;27;20055;-33
2022/07/12 14:04:38;;;;;;;3.65;0.82;;;;;;;;;;5085565;28;20024;-34
2022/07/12 14:07:05;;;;;;;0.60;0.60;;;;;;;;;;5084355;28;20517;-33
2022/07/12 14:09:31;;;;;;;0.50;0.50;;;;;;;;;;5087836;28;20024;-34
2022/07/12 14:11:58;;;;;;;0.70;0.63;;;;;;;;;;5081450;28;20032;-34
2022/07/12 14:17:16;;;;;;;0.60;0.60;;;;;;;;;;5064004;28;20036;-36
2022/07/12 14:19:42;;;;;;;0.60;0.60;;;;;;;;;;5082866;28;20535;-33
2022/07/12 14:22:08;;;;;;;1.85;0.60;;;;;;;;;;5080919;28;20055;-34
2022/07/12 14:24:34;;;;;;;0.65;0.65;;;;;;;;;;5087123;28;21596;-35
2022/07/12 14:27:01;;;;;;;0.57;0.52;;;;;;;;;;5086808;28;20024;-33
2022/07/12 14:29:27;;;;;;;1.00;1.00;;;;;;;;;;5087869;28;20035;-34
2022/07/12 14:31:55;;;;;;;0.73;0.73;;;;;;;;;;5085487;28;20036;-34
2022/07/12 14:34:21;;;;;;;0.80;0.80;;;;;;;;;;5085472;28;20502;-33
2022/07/12 14:36:47;;;;;;;0.50;0.50;;;;;;;;;;5081883;28;20032;-33
2022/07/12 14:39:13;;;;;;;0.43;0.43;;;;;;;;;;5078786;28;20024;-33
2022/07/12 14:41:39;;;;;;;0.90;0.65;;;;;;;;;;5082353;28;20089;-33
2022/07/12 14:44:06;;;;;;;0.77;0.70;;;;;;;;;;5081519;28;20028;-33
2022/07/12 14:46:33;;;;;;;0.60;0.60;;;;;;;;;;5078314;28;20055;-33
2022/07/12 14:48:59;;;;;;;1.10;0.70;;;;;;;;;;5084492;28;20051;-33
2022/07/12 14:51:25;;;;;;;1.00;0.77;;;;;;;;;;5085807;28;20062;-35
2022/07/12 14:53:54;;;;;;;0.60;0.60;;;;;;;;;;5086179;28;20596;-33
2022/07/12 14:56:20;;;;;;;0.47;0.47;;;;;;;;;;5086305;28;20473;-36
2022/07/12 14:58:46;;;;;;;0.57;0.57;;;;;;;;;;5090307;28;20062;-34